Latest Weather Observations for Maryborough

IDQ60801

Issued at 6:02 pm EST Monday 8 February 2016 (issued every 30 minutes, with the page automatically refreshed every 10 minutes)

About weather observations | Map of weather stations | Latest weather observations for QLD | Other Formats
Station Details ID: 040126 Name: MARYBOROUGH Lat: -25.51 Lon: 152.72 Height: 10.28 m
Data from the previous 72 hours. | See also: Recent months at Maryborough
Date/Time
EST
Temp
°C
App
Temp
°C
Dew
Point
Rel
Hum
%
Delta-T
°C
Wind Press
QNH
hPa
Press
MSL
hPa
Rain
since 9 am
mm
Dir
 
Spd
km/h
Gust
km/h
Spd
kts
Gust
kts
08/06:00pm 25.4 24.3 18.6 66 4.3 SE 22 33 12 18 1012.7 1012.6 0.2
08/05:30pm 25.4 23.4 18.3 65 4.5 SE 26 35 14 19 1012.2 - 0.2
08/05:00pm 26.6 24.8 18.7 62 5.0 SE 26 37 14 20 1011.7 - 0.2
08/04:30pm 27.3 25.3 19.1 61 5.3 SE 28 41 15 22 1011.6 - 0.2
08/04:00pm 27.9 26.2 18.9 58 5.8 SE 26 35 14 19 1011.7 - 0.2
08/03:30pm 28.2 26.0 18.6 56 6.2 SE 28 39 15 21 1011.7 - 0.2
08/03:00pm 28.4 26.1 17.6 52 6.8 SE 26 41 14 22 1011.8 1011.7 0.2
08/02:30pm 28.8 27.4 18.9 55 6.4 SE 24 33 13 18 1012.4 - 0.2
08/02:00pm 28.3 26.1 18.7 56 6.2 SE 28 37 15 20 1012.7 - 0.2
08/01:33pm 28.0 25.9 19.0 58 5.8 ESE 28 46 15 25 1012.9 - 0.2
08/01:30pm 27.5 25.0 18.8 59 5.6 SE 30 46 16 25 1012.9 - 0.2
08/01:25pm 28.5 26.6 19.4 57 5.9 SE 28 46 15 25 1012.8 - 0.2
08/01:00pm 28.3 26.6 19.0 57 6.0 SE 26 39 14 21 1013.0 - 0.2
08/12:30pm 28.9 27.8 19.5 57 6.1 SE 24 33 13 18 1013.3 - 0.2
08/12:00pm 28.1 26.3 17.9 54 6.5 SE 24 30 13 16 1013.6 1013.5 0.2
08/11:30am 27.8 25.5 17.6 53 6.4 SE 26 39 14 21 1014.0 - 0.0
08/11:00am 28.7 26.8 18.5 54 6.5 SE 26 35 14 19 1014.1 - 0.0
08/10:30am 27.8 25.9 17.6 53 6.4 SE 24 35 13 19 1014.3 - 0.0
08/10:00am 27.0 25.0 18.3 59 5.5 SSE 26 35 14 19 1014.4 - 0.0
08/09:30am 27.4 25.4 18.4 58 5.7 SE 26 33 14 18 1014.5 - 0.0
08/09:00am 26.3 24.6 18.2 61 5.1 SSE 24 33 13 18 1014.4 1014.3 1.0
08/08:30am 25.8 24.3 18.5 64 4.6 SSE 24 32 13 17 1014.5 - 1.0
08/08:00am 24.9 23.7 18.3 66 4.2 SSE 22 32 12 17 1014.4 - 1.0
08/07:30am 24.2 23.9 19.1 73 3.3 S 19 24 10 13 1014.5 - 1.0
08/07:00am 22.9 22.8 18.7 77 2.7 S 17 22 9 12 1014.4 - 1.0
08/06:30am 21.8 22.0 18.6 82 2.0 S 15 20 8 11 1014.1 - 1.0
08/06:00am 20.8 21.3 18.4 86 1.5 S 13 17 7 9 1013.7 1013.6 1.0
08/05:30am 20.8 21.3 18.4 86 1.5 S 13 15 7 8 1013.3 - 1.0
08/05:00am 21.0 21.7 18.8 87 1.4 S 13 17 7 9 1013.2 - 1.0
08/04:30am 21.2 21.9 18.9 87 1.4 S 13 19 7 10 1012.9 - 1.0
08/04:00am 21.3 21.9 19.4 89 1.2 S 15 20 8 11 1013.0 - 1.0
08/03:30am 21.2 21.8 19.5 90 1.1 S 15 19 8 10 1013.0 - 1.0
08/03:00am 21.2 22.2 19.5 90 1.1 S 13 17 7 9 1012.9 1012.8 1.0
08/02:30am 21.1 22.8 19.4 90 1.1 S 9 13 5 7 1013.0 - 1.0
08/02:00am 21.2 22.1 19.3 89 1.2 S 13 15 7 8 1013.0 - 1.0
08/01:30am 21.3 22.3 19.4 89 1.2 S 13 17 7 9 1013.2 - 1.0
08/01:00am 21.1 22.3 19.0 88 1.3 S 11 13 6 7 1013.2 - 1.0
08/12:30am 21.4 23.0 19.1 87 1.5 S 9 13 5 7 1013.9 - 1.0
08/12:00am 21.8 22.8 19.4 86 1.5 S 13 17 7 9 1014.0 1013.9 1.0
 
Date/Time
EST
Temp
°C
App
Temp
°C
Dew
Point
Rel
Hum
%
Delta-T
°C
Wind Press
QNH
hPa
Press
MSL
hPa
Rain
since 9 am
mm
Dir
 
Spd
km/h
Gust
km/h
Spd
kts
Gust
kts
07/11:30pm 22.3 23.8 19.8 86 1.6 SSW 11 15 6 8 1014.1 - 1.0
07/11:00pm 22.3 24.3 20.0 87 1.5 S 9 11 5 6 1014.3 - 1.0
07/10:30pm 22.3 23.8 19.7 85 1.7 S 11 13 6 7 1014.4 - 1.0
07/10:00pm 22.9 24.4 19.7 82 2.1 SSE 11 15 6 8 1014.3 - 1.0
07/09:30pm 23.5 24.2 19.6 79 2.5 SSE 15 20 8 11 1014.1 - 1.0
07/09:00pm 23.7 23.0 19.6 78 2.6 SSE 22 32 12 17 1013.8 1013.7 1.0
07/08:30pm 23.5 24.0 20.0 81 2.3 SSE 17 24 9 13 1013.7 - 1.0
07/08:00pm 23.6 23.6 20.1 81 2.3 SSE 20 26 11 14 1013.5 - 1.0
07/07:30pm 23.6 23.5 20.7 84 1.9 SE 22 28 12 15 1013.2 - 1.0
07/07:00pm 23.7 23.5 20.6 83 2.0 SE 22 32 12 17 1012.9 - 1.0
07/06:30pm 24.2 24.0 20.5 80 2.4 SSE 22 33 12 18 1012.7 - 1.0
07/06:00pm 24.7 23.2 20.2 76 2.9 SSE 28 37 15 20 1012.2 1012.1 1.0
07/05:30pm 26.5 25.3 20.8 71 3.8 SSE 28 43 15 23 1011.6 - 1.0
07/05:00pm 25.8 25.6 20.6 73 3.4 SE 22 28 12 15 1011.2 - 1.0
07/04:30pm 26.4 24.4 20.7 71 3.7 SE 32 43 17 23 1011.0 - 1.0
07/04:00pm 27.1 25.2 20.2 66 4.5 SE 30 37 16 20 1010.8 - 1.0
07/03:30pm 27.9 26.5 21.2 67 4.5 SE 30 43 16 23 1010.5 - 1.0
07/03:00pm 27.0 26.5 22.2 75 3.2 SE 28 41 15 22 1010.7 1010.6 1.0
07/02:30pm 26.0 24.4 20.8 73 3.4 SE 30 41 16 22 1010.6 - 1.0
07/02:00pm 27.9 26.4 20.2 63 5.0 SE 28 41 15 22 1010.9 - 1.0
07/01:30pm 28.4 27.6 20.9 64 5.0 SE 26 37 14 20 1011.1 - 1.0
07/01:05pm 28.6 27.3 20.6 62 5.3 ESE 28 46 15 25 1011.3 - 1.0
07/01:00pm 27.9 26.5 20.5 64 4.9 ESE 28 39 15 21 1011.3 - 1.0
07/12:30pm 28.6 27.2 21.1 64 5.0 SE 30 39 16 21 1011.6 - 1.0
07/12:00pm 26.6 26.1 20.7 70 3.9 SE 24 35 13 19 1011.9 1011.8 1.0
07/11:30am 26.6 28.5 22.7 79 2.6 ESE 17 26 9 14 1012.1 - 0.8
07/11:00am 26.3 27.2 21.5 75 3.2 SE 19 28 10 15 1012.0 - 0.8
07/10:30am 25.5 25.9 21.8 80 2.5 SSE 22 30 12 16 1012.2 - 0.8
07/10:00am 25.8 27.0 22.1 80 2.5 SE 19 28 10 15 1012.0 - 0.6
07/09:30am 24.6 25.9 22.3 87 1.5 SSE 19 26 10 14 1012.0 - 0.6
07/09:28am 24.5 26.1 22.2 87 1.5 SSE 17 26 9 14 1012.0 - 0.6
07/09:10am 24.0 24.2 21.3 85 1.8 SE 22 35 12 19 1012.1 - 0.4
07/09:00am 25.4 26.6 22.1 82 2.2 SSE 19 24 10 13 1011.9 1011.8 3.4
07/08:51am 25.1 26.7 22.2 84 1.9 SSE 17 24 9 13 1011.8 - 3.4
07/08:38am 24.3 25.8 22.0 87 1.5 SSE 17 22 9 12 1011.9 - 3.2
07/08:30am 24.6 26.0 21.9 85 1.8 SSE 17 20 9 11 1011.8 - 2.8
07/08:00am 25.0 26.2 21.5 81 2.3 SSE 17 24 9 13 1011.8 - 2.6
07/07:30am 25.0 27.3 22.1 84 1.9 SSE 13 19 7 10 1011.5 - 2.6
07/07:00am 23.8 25.9 21.7 88 1.4 SSE 13 15 7 8 1011.4 - 2.6
07/06:30am 23.1 25.1 21.5 91 1.1 S 13 17 7 9 1011.1 - 2.4
07/06:00am 22.9 24.8 21.4 91 1.0 S 13 19 7 10 1010.8 1010.7 2.4
07/05:30am 22.8 24.7 21.3 91 1.0 S 13 19 7 10 1010.3 - 2.4
07/05:00am 22.8 25.1 21.3 91 1.0 S 11 15 6 8 1009.9 - 2.4
07/04:30am 22.8 25.1 21.4 92 0.9 S 11 13 6 7 1009.8 - 2.4
07/04:00am 22.7 24.6 21.3 92 0.9 S 13 17 7 9 1009.6 - 2.4
07/03:30am 22.7 25.1 21.5 93 0.8 S 11 13 6 7 1009.6 - 2.4
07/03:00am 22.6 24.9 21.4 93 0.8 S 11 13 6 7 1009.5 1009.4 2.4
07/02:30am 22.7 25.1 21.5 93 0.8 S 11 13 6 7 1009.4 - 2.4
07/02:00am 22.9 25.4 21.7 93 0.8 S 11 13 6 7 1009.7 - 2.4
07/01:30am 23.0 25.8 21.6 92 0.9 S 9 13 5 7 1009.8 - 2.4
07/01:00am 23.0 25.8 21.6 92 0.9 S 9 11 5 6 1010.1 - 2.2
07/12:30am 23.0 25.8 21.6 92 0.9 S 9 13 5 7 1010.5 - 2.2
07/12:00am 22.9 25.3 21.5 92 0.9 S 11 13 6 7 1010.7 1010.6 2.2
 
Date/Time
EST
Temp
°C
App
Temp
°C
Dew
Point
Rel
Hum
%
Delta-T
°C
Wind Press
QNH
hPa
Press
MSL
hPa
Rain
since 9 am
mm
Dir
 
Spd
km/h
Gust
km/h
Spd
kts
Gust
kts
06/11:30pm 22.9 25.3 21.5 92 0.9 S 11 13 6 7 1011.1 - 2.2
06/11:00pm 23.1 25.6 21.7 92 0.9 S 11 15 6 8 1011.2 - 2.2
06/10:30pm 23.2 26.0 21.5 90 1.1 S 9 11 5 6 1011.4 - 2.2
06/10:00pm 23.3 25.7 21.6 90 1.1 SE 11 19 6 10 1011.3 - 2.2
06/09:30pm 23.1 25.8 21.4 90 1.1 SE 9 13 5 7 1011.3 - 2.2
06/09:00pm 23.1 25.4 21.4 90 1.1 SSE 11 15 6 8 1011.4 1011.3 2.2
06/08:30pm 22.9 25.6 21.4 91 1.0 SSE 9 13 5 7 1010.9 - 2.2
06/08:00pm 22.6 24.9 20.7 89 1.2 S 9 13 5 7 1010.7 - 2.2
06/07:30pm 22.6 25.1 21.1 91 1.0 SE 9 13 5 7 1010.5 - 2.2
06/07:00pm 22.6 23.1 20.9 90 1.1 SE 19 28 10 15 1010.0 - 2.2
06/06:46pm 22.8 22.1 21.1 90 1.1 SE 26 41 14 22 1009.8 - 2.2
06/06:30pm 23.2 24.2 21.8 92 0.9 SE 19 28 10 15 1009.5 - 2.0
06/06:25pm 23.2 25.0 21.8 92 0.9 SE 15 20 8 11 1009.5 - 1.6
06/06:00pm 23.2 24.3 21.3 89 1.2 SE 17 24 9 13 1009.2 1009.1 0.4
06/05:51pm 23.4 23.6 21.3 88 1.4 SE 22 28 12 15 1009.1 - 0.4
06/05:41pm 23.6 23.9 21.5 88 1.4 SE 22 30 12 16 1009.0 - 0.4
06/05:30pm 24.2 24.1 21.5 85 1.8 ESE 24 33 13 18 1008.8 - 0.2
06/05:00pm 25.2 25.0 21.3 79 2.6 SE 24 33 13 18 1008.2 - 0.2
06/04:30pm 25.7 25.2 21.4 77 2.8 SE 26 39 14 21 1007.9 - 0.2
06/04:00pm 25.9 24.7 20.9 74 3.3 SE 28 43 15 23 1007.8 - 0.2
06/03:30pm 25.8 25.3 20.8 74 3.3 SE 24 37 13 20 1007.8 - 0.2
06/03:00pm 25.6 24.8 20.8 75 3.2 ESE 26 39 14 21 1007.9 1007.8 0.2
06/02:30pm 26.0 25.1 21.4 76 3.1 ESE 28 39 15 21 1008.0 - 0.2
06/02:02pm 26.3 24.6 21.3 74 3.3 SE 32 50 17 27 1008.1 - 0.2
06/02:00pm 26.5 25.5 21.9 76 3.1 SE 30 43 16 23 1008.1 - 0.2
06/01:30pm 26.2 25.5 21.0 73 3.4 ESE 26 35 14 19 1008.3 - 0.2
06/01:00pm 26.1 25.0 21.1 74 3.3 SE 28 41 15 22 1008.4 - 0.2
06/12:30pm 25.5 26.2 22.2 82 2.2 ESE 22 35 12 19 1008.8 - 0.2
06/12:00pm 25.3 25.6 22.2 83 2.1 SE 24 32 13 17 1009.0 1008.9 0.2
06/11:40am 25.7 24.6 21.1 76 3.0 SE 28 46 15 25 1009.1 - 0.2
06/11:30am 26.2 26.4 21.4 75 3.2 SE 22 33 12 18 1009.0 - 0.2
06/11:00am 25.3 25.5 22.8 86 1.7 SE 26 39 14 21 1009.3 - 0.2
06/10:30am 25.4 26.8 22.9 86 1.7 SE 20 30 11 16 1009.5 - 0.0
06/10:09am 24.9 23.9 21.2 80 2.4 SE 28 46 15 25 1009.6 - 0.0
06/10:00am 25.9 26.6 22.2 80 2.5 SE 22 30 12 16 1009.5 - 0.0
06/09:30am 25.3 26.2 22.0 82 2.2 SE 20 32 11 17 1009.6 - 0.0
06/09:00am 24.8 27.1 22.7 88 1.4 SSE 15 19 8 10 1009.5 1009.4 5.0
06/08:30am 24.4 26.8 23.0 92 0.9 SSE 15 19 8 10 1009.5 - 5.0
06/08:00am 23.9 26.2 22.7 93 0.8 SSE 15 22 8 12 1009.5 - 4.8
06/07:30am 23.7 26.3 22.7 94 0.7 S 13 15 7 8 1009.2 - 4.8
06/07:00am 23.4 26.0 22.6 95 0.5 S 13 15 7 8 1008.9 - 4.8
06/06:30am 23.3 26.2 22.5 95 0.5 S 11 17 6 9 1008.6 - 4.8
06/06:00am 23.2 25.9 22.2 94 0.7 S 11 17 6 9 1008.1 1008.0 4.8
06/05:30am 23.0 25.3 22.0 94 0.7 S 13 17 7 9 1007.4 - 4.8
06/05:00am 23.0 25.7 22.2 95 0.5 S 11 17 6 9 1007.1 - 4.8
06/04:30am 23.1 25.0 22.1 94 0.7 S 15 20 8 11 1006.9 - 4.8
06/04:00am 23.1 24.9 21.9 93 0.8 S 15 19 8 10 1006.9 - 4.8
06/03:30am 23.0 25.2 21.8 93 0.8 SSE 13 17 7 9 1007.0 - 4.8
06/03:00am 22.9 25.5 21.9 94 0.7 S 11 15 6 8 1006.8 1006.7 4.8
06/02:30am 22.7 25.1 21.5 93 0.8 S 11 15 6 8 1006.7 - 4.8
06/02:00am 22.8 24.8 21.6 93 0.8 SSE 13 20 7 11 1007.1 - 4.4
06/01:50am 22.9 24.1 21.5 92 0.9 SSE 17 20 9 11 1007.1 - 4.4
06/01:30am 23.3 24.6 21.6 90 1.1 SE 17 20 9 11 1007.1 - 3.8
06/01:00am 23.3 25.0 21.7 91 1.1 SSE 15 19 8 10 1007.5 - 3.8
06/12:30am 23.3 24.3 21.7 91 1.1 SSE 19 24 10 13 1007.8 - 3.8
06/12:00am 23.3 25.6 22.1 93 0.8 SSE 13 19 7 10 1008.1 1008.0 3.8
 
Date/Time
EST
Temp
°C
App
Temp
°C
Dew
Point
Rel
Hum
%
Delta-T
°C
Wind Press
QNH
hPa
Press
MSL
hPa
Rain
since 9 am
mm
Dir
 
Spd
km/h
Gust
km/h
Spd
kts
Gust
kts
05/11:30pm 23.3 25.5 21.9 92 0.9 SSE 13 19 7 10 1008.5 - 3.8
05/11:00pm 23.5 25.9 22.3 93 0.8 SSE 13 17 7 9 1008.7 - 3.8
05/10:54pm 23.5 25.9 22.3 93 0.8 SE 13 20 7 11 1008.8 - 3.8
05/10:36pm 23.6 26.3 22.2 92 0.9 S 11 17 6 9 1009.0 - 3.8
05/10:30pm 23.7 26.9 22.3 92 0.9 S 9 11 5 6 1009.0 - 2.4
05/10:00pm 23.6 26.2 22.0 91 1.1 SSE 11 15 6 8 1009.2 - 2.4
05/09:30pm 23.4 25.9 21.8 91 1.1 S 11 15 6 8 1009.1 - 2.4
05/09:00pm 23.1 25.0 21.4 90 1.1 SSE 13 19 7 10 1008.7 1008.6 2.4
05/08:30pm 23.2 23.6 20.9 87 1.5 SE 20 30 11 16 1008.7 - 2.4
05/08:00pm 23.5 24.2 21.6 89 1.3 SSE 20 28 11 15 1008.7 - 2.4
05/07:30pm 24.4 24.9 21.1 82 2.2 SSE 20 26 11 14 1008.0 - 2.0
05/07:00pm 24.4 24.6 21.3 83 2.0 SSE 22 33 12 18 1007.6 - 2.0
05/06:30pm 23.7 26.0 22.0 90 1.1 SE 13 19 7 10 1007.4 - 2.0

Other Formats:

Comma delimited format used in spreadsheet applications
http://www.bom.gov.au/fwo/IDQ60801/IDQ60801.94567.axf

JavaScript Object Notation format (JSON) in row-major order
http://www.bom.gov.au/fwo/IDQ60801/IDQ60801.94567.json